sensor_id;sensor_type;location;lat;lon;timestamp;P1;durP1;ratioP1;P2;durP2;ratioP2
16642;SDS011;8435;52.184;5.406;2023-05-07T00:01:58;4.97;;;4.57;;
16642;SDS011;8435;52.184;5.406;2023-05-07T00:04:25;5.27;;;4.80;;
16642;SDS011;8435;52.184;5.406;2023-05-07T00:07:02;4.50;;;4.20;;
16642;SDS011;8435;52.184;5.406;2023-05-07T00:09:29;4.87;;;4.57;;
16642;SDS011;8435;52.184;5.406;2023-05-07T00:11:56;4.73;;;4.40;;
16642;SDS011;8435;52.184;5.406;2023-05-07T00:14:22;5.23;;;4.83;;
16642;SDS011;8435;52.184;5.406;2023-05-07T00:16:49;5.60;;;5.10;;
16642;SDS011;8435;52.184;5.406;2023-05-07T00:19:16;5.67;;;5.20;;
16642;SDS011;8435;52.184;5.406;2023-05-07T00:21:43;5.47;;;4.97;;
16642;SDS011;8435;52.184;5.406;2023-05-07T00:24:11;4.80;;;4.40;;
16642;SDS011;8435;52.184;5.406;2023-05-07T00:26:40;5.93;;;5.43;;
16642;SDS011;8435;52.184;5.406;2023-05-07T00:29:06;5.13;;;4.73;;
16642;SDS011;8435;52.184;5.406;2023-05-07T00:31:35;5.20;;;4.77;;
16642;SDS011;8435;52.184;5.406;2023-05-07T00:34:05;6.00;;;5.50;;
16642;SDS011;8435;52.184;5.406;2023-05-07T00:36:32;5.67;;;5.17;;
16642;SDS011;8435;52.184;5.406;2023-05-07T00:38:59;5.40;;;4.90;;
16642;SDS011;8435;52.184;5.406;2023-05-07T00:41:29;5.00;;;4.60;;
16642;SDS011;8435;52.184;5.406;2023-05-07T00:44:00;5.03;;;4.53;;
16642;SDS011;8435;52.184;5.406;2023-05-07T00:46:29;5.60;;;5.00;;
16642;SDS011;8435;52.184;5.406;2023-05-07T00:48:57;5.67;;;5.27;;
16642;SDS011;8435;52.184;5.406;2023-05-07T00:51:25;8.67;;;7.63;;
16642;SDS011;8435;52.184;5.406;2023-05-07T00:53:52;6.67;;;6.17;;
16642;SDS011;8435;52.184;5.406;2023-05-07T00:56:20;5.73;;;5.27;;
16642;SDS011;8435;52.184;5.406;2023-05-07T00:58:48;15.27;;;13.83;;
16642;SDS011;8435;52.184;5.406;2023-05-07T01:01:15;8.60;;;7.83;;
16642;SDS011;8435;52.184;5.406;2023-05-07T01:03:45;8.37;;;7.57;;
16642;SDS011;8435;52.184;5.406;2023-05-07T01:06:12;10.63;;;9.63;;
16642;SDS011;8435;52.184;5.406;2023-05-07T01:08:41;15.33;;;13.83;;
16642;SDS011;8435;52.184;5.406;2023-05-07T01:11:08;8.70;;;7.90;;
16642;SDS011;8435;52.184;5.406;2023-05-07T01:13:37;9.67;;;8.20;;
16642;SDS011;8435;52.184;5.406;2023-05-07T01:16:06;6.80;;;6.10;;
16642;SDS011;8435;52.184;5.406;2023-05-07T01:18:35;6.10;;;5.60;;
16642;SDS011;8435;52.184;5.406;2023-05-07T01:21:05;5.67;;;5.17;;
16642;SDS011;8435;52.184;5.406;2023-05-07T01:23:38;5.37;;;4.87;;
16642;SDS011;8435;52.184;5.406;2023-05-07T01:26:10;5.90;;;5.40;;
16642;SDS011;8435;52.184;5.406;2023-05-07T01:28:37;4.77;;;4.47;;
16642;SDS011;8435;52.184;5.406;2023-05-07T01:31:04;5.57;;;4.83;;
16642;SDS011;8435;52.184;5.406;2023-05-07T01:33:32;5.20;;;4.80;;
16642;SDS011;8435;52.184;5.406;2023-05-07T01:36:01;5.33;;;4.90;;
16642;SDS011;8435;52.184;5.406;2023-05-07T01:38:31;5.87;;;5.33;;
16642;SDS011;8435;52.184;5.406;2023-05-07T01:40:59;6.00;;;5.27;;
16642;SDS011;8435;52.184;5.406;2023-05-07T01:43:30;5.13;;;4.67;;
16642;SDS011;8435;52.184;5.406;2023-05-07T01:45:57;5.23;;;4.83;;
16642;SDS011;8435;52.184;5.406;2023-05-07T01:48:26;5.47;;;4.97;;
16642;SDS011;8435;52.184;5.406;2023-05-07T01:50:53;6.03;;;5.53;;
16642;SDS011;8435;52.184;5.406;2023-05-07T01:53:20;5.90;;;5.50;;
16642;SDS011;8435;52.184;5.406;2023-05-07T01:55:47;5.53;;;5.13;;
16642;SDS011;8435;52.184;5.406;2023-05-07T01:58:16;5.53;;;5.13;;
16642;SDS011;8435;52.184;5.406;2023-05-07T02:00:43;5.73;;;5.23;;
16642;SDS011;8435;52.184;5.406;2023-05-07T02:03:10;6.00;;;5.40;;
16642;SDS011;8435;52.184;5.406;2023-05-07T02:05:37;6.93;;;6.37;;
16642;SDS011;8435;52.184;5.406;2023-05-07T02:08:04;13.80;;;12.50;;
16642;SDS011;8435;52.184;5.406;2023-05-07T02:10:30;7.40;;;6.80;;
16642;SDS011;8435;52.184;5.406;2023-05-07T02:12:57;6.80;;;6.27;;
16642;SDS011;8435;52.184;5.406;2023-05-07T02:15:26;6.83;;;6.20;;
16642;SDS011;8435;52.184;5.406;2023-05-07T02:18:02;5.97;;;5.40;;
16642;SDS011;8435;52.184;5.406;2023-05-07T02:20:30;5.67;;;5.27;;
16642;SDS011;8435;52.184;5.406;2023-05-07T02:22:57;6.57;;;6.00;;
16642;SDS011;8435;52.184;5.406;2023-05-07T02:25:24;6.10;;;5.70;;
16642;SDS011;8435;52.184;5.406;2023-05-07T02:27:50;5.77;;;5.37;;
16642;SDS011;8435;52.184;5.406;2023-05-07T02:30:17;6.40;;;5.80;;
16642;SDS011;8435;52.184;5.406;2023-05-07T02:32:47;6.83;;;5.70;;
16642;SDS011;8435;52.184;5.406;2023-05-07T02:35:14;5.33;;;4.93;;
16642;SDS011;8435;52.184;5.406;2023-05-07T02:37:41;6.13;;;5.60;;
16642;SDS011;8435;52.184;5.406;2023-05-07T02:40:10;6.30;;;5.73;;
16642;SDS011;8435;52.184;5.406;2023-05-07T02:42:37;6.03;;;5.53;;
16642;SDS011;8435;52.184;5.406;2023-05-07T02:45:04;6.47;;;5.93;;
16642;SDS011;8435;52.184;5.406;2023-05-07T02:47:32;6.47;;;5.90;;
16642;SDS011;8435;52.184;5.406;2023-05-07T02:50:01;6.57;;;6.10;;
16642;SDS011;8435;52.184;5.406;2023-05-07T02:52:28;6.83;;;6.23;;
16642;SDS011;8435;52.184;5.406;2023-05-07T02:54:57;5.80;;;5.40;;
16642;SDS011;8435;52.184;5.406;2023-05-07T02:57:24;6.30;;;5.80;;
16642;SDS011;8435;52.184;5.406;2023-05-07T02:59:51;6.57;;;6.07;;
16642;SDS011;8435;52.184;5.406;2023-05-07T03:02:17;6.57;;;5.97;;
16642;SDS011;8435;52.184;5.406;2023-05-07T03:04:45;6.50;;;5.93;;
16642;SDS011;8435;52.184;5.406;2023-05-07T03:07:13;6.47;;;5.97;;
16642;SDS011;8435;52.184;5.406;2023-05-07T03:09:40;6.67;;;6.10;;
16642;SDS011;8435;52.184;5.406;2023-05-07T03:12:07;6.83;;;6.20;;
16642;SDS011;8435;52.184;5.406;2023-05-07T03:14:34;6.60;;;6.10;;
16642;SDS011;8435;52.184;5.406;2023-05-07T03:17:01;7.17;;;6.57;;
16642;SDS011;8435;52.184;5.406;2023-05-07T03:19:27;7.57;;;6.87;;
16642;SDS011;8435;52.184;5.406;2023-05-07T03:21:55;8.40;;;7.60;;
16642;SDS011;8435;52.184;5.406;2023-05-07T03:24:26;7.53;;;6.83;;
16642;SDS011;8435;52.184;5.406;2023-05-07T03:26:53;7.70;;;7.00;;
16642;SDS011;8435;52.184;5.406;2023-05-07T03:29:20;7.07;;;6.57;;
16642;SDS011;8435;52.184;5.406;2023-05-07T03:31:46;6.83;;;6.23;;
16642;SDS011;8435;52.184;5.406;2023-05-07T03:34:13;7.03;;;6.47;;
16642;SDS011;8435;52.184;5.406;2023-05-07T03:36:42;6.83;;;6.23;;
16642;SDS011;8435;52.184;5.406;2023-05-07T03:39:09;7.53;;;6.93;;
16642;SDS011;8435;52.184;5.406;2023-05-07T03:41:37;7.20;;;6.60;;
16642;SDS011;8435;52.184;5.406;2023-05-07T03:44:04;7.13;;;6.63;;
16642;SDS011;8435;52.184;5.406;2023-05-07T03:46:31;7.67;;;6.97;;
16642;SDS011;8435;52.184;5.406;2023-05-07T03:48:57;8.53;;;7.87;;
16642;SDS011;8435;52.184;5.406;2023-05-07T03:51:24;8.70;;;7.97;;
16642;SDS011;8435;52.184;5.406;2023-05-07T03:53:52;8.27;;;7.57;;
16642;SDS011;8435;52.184;5.406;2023-05-07T03:56:19;7.77;;;7.17;;
16642;SDS011;8435;52.184;5.406;2023-05-07T03:58:47;8.00;;;7.30;;
16642;SDS011;8435;52.184;5.406;2023-05-07T04:01:14;8.43;;;7.80;;
16642;SDS011;8435;52.184;5.406;2023-05-07T04:03:41;7.70;;;7.00;;
16642;SDS011;8435;52.184;5.406;2023-05-07T04:06:11;8.63;;;7.93;;
16642;SDS011;8435;52.184;5.406;2023-05-07T04:08:37;8.37;;;7.77;;
16642;SDS011;8435;52.184;5.406;2023-05-07T04:11:06;9.87;;;9.07;;
16642;SDS011;8435;52.184;5.406;2023-05-07T04:13:33;9.23;;;7.53;;
16642;SDS011;8435;52.184;5.406;2023-05-07T04:16:02;8.73;;;8.03;;
16642;SDS011;8435;52.184;5.406;2023-05-07T04:18:30;8.53;;;7.83;;
16642;SDS011;8435;52.184;5.406;2023-05-07T04:20:57;9.33;;;8.63;;
16642;SDS011;8435;52.184;5.406;2023-05-07T04:23:23;9.23;;;8.43;;
16642;SDS011;8435;52.184;5.406;2023-05-07T04:25:50;8.37;;;7.73;;
16642;SDS011;8435;52.184;5.406;2023-05-07T04:28:17;9.03;;;8.30;;
16642;SDS011;8435;52.184;5.406;2023-05-07T04:30:44;9.10;;;8.40;;
16642;SDS011;8435;52.184;5.406;2023-05-07T04:33:13;9.03;;;8.33;;
16642;SDS011;8435;52.184;5.406;2023-05-07T04:35:41;10.17;;;9.27;;
16642;SDS011;8435;52.184;5.406;2023-05-07T04:38:08;9.63;;;8.83;;
16642;SDS011;8435;52.184;5.406;2023-05-07T04:40:36;9.23;;;8.43;;
16642;SDS011;8435;52.184;5.406;2023-05-07T04:43:04;9.20;;;8.50;;
16642;SDS011;8435;52.184;5.406;2023-05-07T04:45:32;10.17;;;9.27;;
16642;SDS011;8435;52.184;5.406;2023-05-07T04:47:59;10.33;;;9.47;;
16642;SDS011;8435;52.184;5.406;2023-05-07T04:50:27;9.37;;;8.67;;
16642;SDS011;8435;52.184;5.406;2023-05-07T04:52:55;9.30;;;8.50;;
16642;SDS011;8435;52.184;5.406;2023-05-07T04:55:24;9.73;;;8.93;;
16642;SDS011;8435;52.184;5.406;2023-05-07T04:57:51;9.77;;;8.87;;
16642;SDS011;8435;52.184;5.406;2023-05-07T05:00:19;9.37;;;8.57;;
16642;SDS011;8435;52.184;5.406;2023-05-07T05:02:46;9.20;;;8.40;;
16642;SDS011;8435;52.184;5.406;2023-05-07T05:05:12;9.00;;;8.20;;
16642;SDS011;8435;52.184;5.406;2023-05-07T05:07:41;10.00;;;9.20;;
16642;SDS011;8435;52.184;5.406;2023-05-07T05:10:11;9.50;;;8.70;;
16642;SDS011;8435;52.184;5.406;2023-05-07T05:12:37;10.00;;;9.00;;
16642;SDS011;8435;52.184;5.406;2023-05-07T05:15:05;10.07;;;9.27;;
16642;SDS011;8435;52.184;5.406;2023-05-07T05:17:32;9.23;;;8.53;;
16642;SDS011;8435;52.184;5.406;2023-05-07T05:20:00;9.77;;;8.97;;
16642;SDS011;8435;52.184;5.406;2023-05-07T05:22:27;10.10;;;9.23;;
16642;SDS011;8435;52.184;5.406;2023-05-07T05:24:56;11.10;;;10.13;;
16642;SDS011;8435;52.184;5.406;2023-05-07T05:27:23;10.23;;;9.43;;
16642;SDS011;8435;52.184;5.406;2023-05-07T05:29:50;10.93;;;10.03;;
16642;SDS011;8435;52.184;5.406;2023-05-07T05:32:16;10.50;;;9.70;;
16642;SDS011;8435;52.184;5.406;2023-05-07T05:34:43;10.30;;;9.50;;
16642;SDS011;8435;52.184;5.406;2023-05-07T05:37:14;11.13;;;10.23;;
16642;SDS011;8435;52.184;5.406;2023-05-07T05:39:40;10.70;;;9.87;;
16642;SDS011;8435;52.184;5.406;2023-05-07T05:42:09;11.90;;;10.90;;
16642;SDS011;8435;52.184;5.406;2023-05-07T05:44:35;10.80;;;9.93;;
16642;SDS011;8435;52.184;5.406;2023-05-07T05:47:02;11.57;;;10.57;;
16642;SDS011;8435;52.184;5.406;2023-05-07T05:49:29;12.43;;;11.30;;
16642;SDS011;8435;52.184;5.406;2023-05-07T05:51:56;12.87;;;11.77;;
16642;SDS011;8435;52.184;5.406;2023-05-07T05:54:23;12.10;;;11.10;;
16642;SDS011;8435;52.184;5.406;2023-05-07T05:56:50;12.50;;;11.43;;
16642;SDS011;8435;52.184;5.406;2023-05-07T05:59:18;12.57;;;11.40;;
16642;SDS011;8435;52.184;5.406;2023-05-07T06:01:45;12.97;;;11.97;;
16642;SDS011;8435;52.184;5.406;2023-05-07T06:04:12;12.17;;;11.17;;
16642;SDS011;8435;52.184;5.406;2023-05-07T06:06:40;12.03;;;11.07;;
16642;SDS011;8435;52.184;5.406;2023-05-07T06:09:07;12.97;;;11.83;;
16642;SDS011;8435;52.184;5.406;2023-05-07T06:11:34;12.97;;;11.87;;
16642;SDS011;8435;52.184;5.406;2023-05-07T06:14:03;12.57;;;11.57;;
16642;SDS011;8435;52.184;5.406;2023-05-07T06:16:33;13.27;;;12.17;;
16642;SDS011;8435;52.184;5.406;2023-05-07T06:19:00;13.07;;;11.87;;
16642;SDS011;8435;52.184;5.406;2023-05-07T06:21:27;12.47;;;11.43;;
16642;SDS011;8435;52.184;5.406;2023-05-07T06:23:56;17.60;;;11.47;;
16642;SDS011;8435;52.184;5.406;2023-05-07T06:26:23;12.47;;;11.40;;
16642;SDS011;8435;52.184;5.406;2023-05-07T06:28:50;12.67;;;11.53;;
16642;SDS011;8435;52.184;5.406;2023-05-07T06:31:17;12.70;;;11.70;;
16642;SDS011;8435;52.184;5.406;2023-05-07T06:33:47;13.00;;;12.00;;
16642;SDS011;8435;52.184;5.406;2023-05-07T06:36:15;13.20;;;12.00;;
16642;SDS011;8435;52.184;5.406;2023-05-07T06:38:42;12.50;;;11.33;;
16642;SDS011;8435;52.184;5.406;2023-05-07T06:41:09;12.50;;;11.57;;
16642;SDS011;8435;52.184;5.406;2023-05-07T06:43:36;13.87;;;12.67;;
16642;SDS011;8435;52.184;5.406;2023-05-07T06:46:03;12.03;;;10.93;;
16642;SDS011;8435;52.184;5.406;2023-05-07T06:48:30;13.20;;;12.10;;
16642;SDS011;8435;52.184;5.406;2023-05-07T06:50:59;13.27;;;12.17;;
16642;SDS011;8435;52.184;5.406;2023-05-07T06:53:26;12.93;;;11.83;;
16642;SDS011;8435;52.184;5.406;2023-05-07T06:55:54;13.03;;;11.83;;
16642;SDS011;8435;52.184;5.406;2023-05-07T06:58:21;13.03;;;11.93;;
16642;SDS011;8435;52.184;5.406;2023-05-07T07:00:48;14.27;;;13.00;;
16642;SDS011;8435;52.184;5.406;2023-05-07T07:03:15;13.40;;;12.30;;
16642;SDS011;8435;52.184;5.406;2023-05-07T07:05:41;13.97;;;12.67;;
16642;SDS011;8435;52.184;5.406;2023-05-07T07:08:10;13.20;;;12.20;;
16642;SDS011;8435;52.184;5.406;2023-05-07T07:10:39;13.33;;;12.23;;
16642;SDS011;8435;52.184;5.406;2023-05-07T07:13:06;12.37;;;11.27;;
16642;SDS011;8435;52.184;5.406;2023-05-07T07:15:33;12.83;;;11.80;;
16642;SDS011;8435;52.184;5.406;2023-05-07T07:18:00;14.32;;;13.13;;
16642;SDS011;8435;52.184;5.406;2023-05-07T07:20:28;13.15;;;12.05;;
16642;SDS011;8435;52.184;5.406;2023-05-07T07:22:55;14.48;;;13.25;;
16642;SDS011;8435;52.184;5.406;2023-05-07T07:25:23;14.23;;;13.10;;
16642;SDS011;8435;52.184;5.406;2023-05-07T07:27:50;13.02;;;11.93;;
16642;SDS011;8435;52.184;5.406;2023-05-07T07:30:17;14.18;;;13.00;;
16642;SDS011;8435;52.184;5.406;2023-05-07T07:32:43;13.27;;;12.18;;
16642;SDS011;8435;52.184;5.406;2023-05-07T07:35:10;13.73;;;12.73;;
16642;SDS011;8435;52.184;5.406;2023-05-07T07:37:39;14.07;;;12.88;;
16642;SDS011;8435;52.184;5.406;2023-05-07T07:40:06;13.50;;;12.45;;
16642;SDS011;8435;52.184;5.406;2023-05-07T07:42:35;13.45;;;12.40;;
16642;SDS011;8435;52.184;5.406;2023-05-07T07:45:02;14.48;;;13.32;;
16642;SDS011;8435;52.184;5.406;2023-05-07T07:47:30;15.52;;;14.32;;
16642;SDS011;8435;52.184;5.406;2023-05-07T07:50:01;14.60;;;13.50;;
16642;SDS011;8435;52.184;5.406;2023-05-07T07:52:30;14.60;;;13.50;;
16642;SDS011;8435;52.184;5.406;2023-05-07T07:54:57;15.00;;;13.85;;
16642;SDS011;8435;52.184;5.406;2023-05-07T07:57:24;15.35;;;14.15;;
16642;SDS011;8435;52.184;5.406;2023-05-07T07:59:52;15.48;;;14.27;;
16642;SDS011;8435;52.184;5.406;2023-05-07T08:02:19;15.98;;;14.68;;
16642;SDS011;8435;52.184;5.406;2023-05-07T08:04:46;14.43;;;13.32;;
16642;SDS011;8435;52.184;5.406;2023-05-07T08:07:16;14.73;;;13.63;;
16642;SDS011;8435;52.184;5.406;2023-05-07T08:09:45;15.65;;;14.45;;
16642;SDS011;8435;52.184;5.406;2023-05-07T08:12:12;15.25;;;13.95;;
16642;SDS011;8435;52.184;5.406;2023-05-07T08:14:39;14.43;;;13.35;;
16642;SDS011;8435;52.184;5.406;2023-05-07T08:17:08;15.32;;;14.13;;
16642;SDS011;8435;52.184;5.406;2023-05-07T08:19:35;14.68;;;13.57;;
16642;SDS011;8435;52.184;5.406;2023-05-07T08:22:02;13.85;;;12.85;;
16642;SDS011;8435;52.184;5.406;2023-05-07T08:24:30;14.00;;;12.90;;
16642;SDS011;8435;52.184;5.406;2023-05-07T08:26:57;13.73;;;12.57;;
16642;SDS011;8435;52.184;5.406;2023-05-07T08:29:24;14.35;;;13.25;;
16642;SDS011;8435;52.184;5.406;2023-05-07T08:31:51;14.63;;;13.43;;
16642;SDS011;8435;52.184;5.406;2023-05-07T08:34:20;13.90;;;12.90;;
16642;SDS011;8435;52.184;5.406;2023-05-07T08:36:50;14.07;;;12.88;;
16642;SDS011;8435;52.184;5.406;2023-05-07T08:39:16;15.10;;;13.90;;
16642;SDS011;8435;52.184;5.406;2023-05-07T08:41:44;14.77;;;13.68;;
16642;SDS011;8435;52.184;5.406;2023-05-07T08:44:12;14.68;;;13.57;;
16642;SDS011;8435;52.184;5.406;2023-05-07T08:46:40;14.65;;;13.45;;
16642;SDS011;8435;52.184;5.406;2023-05-07T08:49:08;14.43;;;13.32;;
16642;SDS011;8435;52.184;5.406;2023-05-07T08:51:36;14.65;;;13.45;;
16642;SDS011;8435;52.184;5.406;2023-05-07T08:54:08;13.73;;;12.65;;
16642;SDS011;8435;52.184;5.406;2023-05-07T08:56:41;14.93;;;13.73;;
16642;SDS011;8435;52.184;5.406;2023-05-07T08:59:08;16.20;;;14.85;;
16642;SDS011;8435;52.184;5.406;2023-05-07T09:01:35;16.15;;;14.75;;
16642;SDS011;8435;52.184;5.406;2023-05-07T09:04:03;15.02;;;13.82;;
16642;SDS011;8435;52.184;5.406;2023-05-07T09:06:31;16.92;;;15.57;;
16642;SDS011;8435;52.184;5.406;2023-05-07T09:09:00;16.15;;;14.80;;
16642;SDS011;8435;52.184;5.406;2023-05-07T09:11:28;16.63;;;15.23;;
16642;SDS011;8435;52.184;5.406;2023-05-07T09:13:55;18.63;;;17.05;;
16642;SDS011;8435;52.184;5.406;2023-05-07T09:16:23;17.13;;;15.55;;
16642;SDS011;8435;52.184;5.406;2023-05-07T09:18:54;15.73;;;14.43;;
16642;SDS011;8435;52.184;5.406;2023-05-07T09:21:21;15.40;;;14.20;;
16642;SDS011;8435;52.184;5.406;2023-05-07T09:23:57;15.65;;;14.35;;
16642;SDS011;8435;52.184;5.406;2023-05-07T09:26:28;15.57;;;14.27;;
16642;SDS011;8435;52.184;5.406;2023-05-07T09:28:56;17.13;;;15.75;;
16642;SDS011;8435;52.184;5.406;2023-05-07T09:31:27;14.75;;;13.55;;
16642;SDS011;8435;52.184;5.406;2023-05-07T09:33:55;14.68;;;13.48;;
16642;SDS011;8435;52.184;5.406;2023-05-07T09:36:21;17.58;;;16.17;;
16642;SDS011;8435;52.184;5.406;2023-05-07T09:38:49;14.43;;;13.23;;
16642;SDS011;8435;52.184;5.406;2023-05-07T09:41:16;14.45;;;13.15;;
16642;SDS011;8435;52.184;5.406;2023-05-07T09:43:44;13.50;;;12.18;;
16642;SDS011;8435;52.184;5.406;2023-05-07T09:46:11;14.95;;;13.60;;
16642;SDS011;8435;52.184;5.406;2023-05-07T09:48:40;13.63;;;12.32;;
16642;SDS011;8435;52.184;5.406;2023-05-07T09:51:20;13.35;;;12.15;;
16642;SDS011;8435;52.184;5.406;2023-05-07T09:53:51;13.48;;;12.30;;
16642;SDS011;8435;52.184;5.406;2023-05-07T09:56:19;12.50;;;11.50;;
16642;SDS011;8435;52.184;5.406;2023-05-07T09:58:48;11.90;;;10.98;;
16642;SDS011;8435;52.184;5.406;2023-05-07T10:01:17;11.38;;;10.48;;
16642;SDS011;8435;52.184;5.406;2023-05-07T10:03:47;11.00;;;10.20;;
16642;SDS011;8435;52.184;5.406;2023-05-07T10:06:16;11.27;;;10.38;;
16642;SDS011;8435;52.184;5.406;2023-05-07T10:08:43;11.15;;;10.18;;
16642;SDS011;8435;52.184;5.406;2023-05-07T10:11:20;11.30;;;10.40;;
16642;SDS011;8435;52.184;5.406;2023-05-07T10:13:52;10.55;;;9.75;;
16642;SDS011;8435;52.184;5.406;2023-05-07T10:16:21;11.43;;;10.43;;
16642;SDS011;8435;52.184;5.406;2023-05-07T10:18:49;10.35;;;9.55;;
16642;SDS011;8435;52.184;5.406;2023-05-07T10:21:17;8.90;;;8.20;;
16642;SDS011;8435;52.184;5.406;2023-05-07T10:23:46;9.20;;;8.40;;
16642;SDS011;8435;52.184;5.406;2023-05-07T10:26:16;8.90;;;8.13;;
16642;SDS011;8435;52.184;5.406;2023-05-07T10:28:45;8.55;;;7.80;;
16642;SDS011;8435;52.184;5.406;2023-05-07T10:31:23;8.07;;;7.47;;
16642;SDS011;8435;52.184;5.406;2023-05-07T10:34:07;9.25;;;8.43;;
16642;SDS011;8435;52.184;5.406;2023-05-07T10:36:36;9.70;;;8.88;;
16642;SDS011;8435;52.184;5.406;2023-05-07T10:39:04;9.27;;;8.48;;
16642;SDS011;8435;52.184;5.406;2023-05-07T10:41:32;9.55;;;8.75;;
16642;SDS011;8435;52.184;5.406;2023-05-07T10:43:59;9.43;;;8.73;;
16642;SDS011;8435;52.184;5.406;2023-05-07T10:46:28;10.00;;;9.20;;
16642;SDS011;8435;52.184;5.406;2023-05-07T10:49:10;10.48;;;9.57;;
16642;SDS011;8435;52.184;5.406;2023-05-07T10:51:40;11.68;;;10.48;;
16642;SDS011;8435;52.184;5.406;2023-05-07T10:54:18;11.18;;;10.07;;
16642;SDS011;8435;52.184;5.406;2023-05-07T10:56:45;10.23;;;9.25;;
16642;SDS011;8435;52.184;5.406;2023-05-07T11:02:09;9.30;;;8.60;;
16642;SDS011;8435;52.184;5.406;2023-05-07T11:04:39;9.57;;;8.77;;
16642;SDS011;8435;52.184;5.406;2023-05-07T11:07:28;9.95;;;9.15;;
16642;SDS011;8435;52.184;5.406;2023-05-07T11:10:02;10.65;;;9.75;;
16642;SDS011;8435;52.184;5.406;2023-05-07T11:18:01;10.95;;;9.85;;
16642;SDS011;8435;52.184;5.406;2023-05-07T11:20:45;10.73;;;9.73;;
16642;SDS011;8435;52.184;5.406;2023-05-07T11:26:27;9.95;;;9.18;;
16642;SDS011;8435;52.184;5.406;2023-05-07T11:28:56;10.25;;;9.35;;
16642;SDS011;8435;52.184;5.406;2023-05-07T11:31:25;11.00;;;10.10;;
16642;SDS011;8435;52.184;5.406;2023-05-07T11:33:58;10.70;;;9.80;;
16642;SDS011;8435;52.184;5.406;2023-05-07T11:36:30;10.88;;;9.98;;
16642;SDS011;8435;52.184;5.406;2023-05-07T11:38:58;11.50;;;10.57;;
16642;SDS011;8435;52.184;5.406;2023-05-07T11:41:32;11.25;;;10.15;;
16642;SDS011;8435;52.184;5.406;2023-05-07T11:44:00;10.98;;;10.00;;
16642;SDS011;8435;52.184;5.406;2023-05-07T11:46:27;10.90;;;9.90;;
16642;SDS011;8435;52.184;5.406;2023-05-07T11:48:54;11.48;;;10.57;;
16642;SDS011;8435;52.184;5.406;2023-05-07T11:51:24;11.98;;;10.98;;
16642;SDS011;8435;52.184;5.406;2023-05-07T11:53:52;11.60;;;10.70;;
16642;SDS011;8435;52.184;5.406;2023-05-07T11:56:19;11.73;;;10.73;;
16642;SDS011;8435;52.184;5.406;2023-05-07T11:58:47;16.00;;;14.60;;
16642;SDS011;8435;52.184;5.406;2023-05-07T12:01:14;12.43;;;11.43;;
16642;SDS011;8435;52.184;5.406;2023-05-07T12:03:44;11.93;;;11.02;;
16642;SDS011;8435;52.184;5.406;2023-05-07T12:06:12;11.55;;;10.65;;
16642;SDS011;8435;52.184;5.406;2023-05-07T12:08:41;11.35;;;10.35;;
16642;SDS011;8435;52.184;5.406;2023-05-07T12:11:10;12.05;;;11.05;;
16642;SDS011;8435;52.184;5.406;2023-05-07T12:13:42;15.68;;;14.27;;
16642;SDS011;8435;52.184;5.406;2023-05-07T12:16:11;14.25;;;12.98;;
16642;SDS011;8435;52.184;5.406;2023-05-07T12:18:38;12.10;;;11.20;;
16642;SDS011;8435;52.184;5.406;2023-05-07T12:21:06;11.73;;;10.73;;
16642;SDS011;8435;52.184;5.406;2023-05-07T12:23:34;10.77;;;9.90;;
16642;SDS011;8435;52.184;5.406;2023-05-07T12:26:08;11.15;;;10.10;;
16642;SDS011;8435;52.184;5.406;2023-05-07T12:28:36;10.65;;;9.85;;
16642;SDS011;8435;52.184;5.406;2023-05-07T12:31:05;11.43;;;10.52;;
16642;SDS011;8435;52.184;5.406;2023-05-07T12:33:32;11.10;;;10.20;;
16642;SDS011;8435;52.184;5.406;2023-05-07T12:36:02;12.45;;;11.30;;
16642;SDS011;8435;52.184;5.406;2023-05-07T12:38:36;11.88;;;10.93;;
16642;SDS011;8435;52.184;5.406;2023-05-07T12:41:09;12.15;;;11.10;;
16642;SDS011;8435;52.184;5.406;2023-05-07T12:43:38;10.85;;;9.95;;
16642;SDS011;8435;52.184;5.406;2023-05-07T12:46:05;9.02;;;8.32;;
16642;SDS011;8435;52.184;5.406;2023-05-07T12:48:36;10.52;;;9.63;;
16642;SDS011;8435;52.184;5.406;2023-05-07T12:51:10;9.93;;;9.13;;
16642;SDS011;8435;52.184;5.406;2023-05-07T12:53:40;10.18;;;9.27;;
16642;SDS011;8435;52.184;5.406;2023-05-07T12:56:10;12.20;;;11.10;;
16642;SDS011;8435;52.184;5.406;2023-05-07T12:58:36;9.35;;;8.55;;
16642;SDS011;8435;52.184;5.406;2023-05-07T13:01:04;8.90;;;8.15;;
16642;SDS011;8435;52.184;5.406;2023-05-07T13:03:32;9.90;;;9.10;;
16642;SDS011;8435;52.184;5.406;2023-05-07T13:06:01;8.48;;;7.68;;
16642;SDS011;8435;52.184;5.406;2023-05-07T13:08:30;8.98;;;8.18;;
16642;SDS011;8435;52.184;5.406;2023-05-07T13:10:58;10.13;;;9.07;;
16642;SDS011;8435;52.184;5.406;2023-05-07T13:13:29;13.93;;;10.20;;
16642;SDS011;8435;52.184;5.406;2023-05-07T13:15:56;9.88;;;8.98;;
16642;SDS011;8435;52.184;5.406;2023-05-07T13:18:24;9.77;;;8.88;;
16642;SDS011;8435;52.184;5.406;2023-05-07T13:20:51;9.45;;;8.63;;
16642;SDS011;8435;52.184;5.406;2023-05-07T13:23:19;9.10;;;8.30;;
16642;SDS011;8435;52.184;5.406;2023-05-07T13:25:45;8.60;;;7.90;;
16642;SDS011;8435;52.184;5.406;2023-05-07T13:28:12;8.88;;;8.13;;
16642;SDS011;8435;52.184;5.406;2023-05-07T13:30:41;8.60;;;7.80;;
16642;SDS011;8435;52.184;5.406;2023-05-07T13:33:07;9.38;;;8.57;;
16642;SDS011;8435;52.184;5.406;2023-05-07T13:35:35;9.38;;;8.57;;
16642;SDS011;8435;52.184;5.406;2023-05-07T13:38:02;8.88;;;8.18;;
16642;SDS011;8435;52.184;5.406;2023-05-07T13:40:29;10.05;;;9.10;;
16642;SDS011;8435;52.184;5.406;2023-05-07T13:42:56;9.82;;;8.88;;
16642;SDS011;8435;52.184;5.406;2023-05-07T13:45:25;10.38;;;9.55;;
16642;SDS011;8435;52.184;5.406;2023-05-07T13:47:55;10.55;;;9.65;;
16642;SDS011;8435;52.184;5.406;2023-05-07T13:50:23;10.55;;;9.65;;
16642;SDS011;8435;52.184;5.406;2023-05-07T13:52:54;11.02;;;10.13;;
16642;SDS011;8435;52.184;5.406;2023-05-07T13:55:24;9.70;;;8.80;;
16642;SDS011;8435;52.184;5.406;2023-05-07T13:57:54;10.27;;;9.38;;
16642;SDS011;8435;52.184;5.406;2023-05-07T14:00:25;10.57;;;9.65;;
16642;SDS011;8435;52.184;5.406;2023-05-07T14:02:53;9.82;;;9.02;;
16642;SDS011;8435;52.184;5.406;2023-05-07T14:05:22;10.88;;;9.85;;
16642;SDS011;8435;52.184;5.406;2023-05-07T14:07:51;10.73;;;9.82;;
16642;SDS011;8435;52.184;5.406;2023-05-07T14:10:18;11.25;;;10.35;;
16642;SDS011;8435;52.184;5.406;2023-05-07T14:12:45;10.30;;;9.40;;
16642;SDS011;8435;52.184;5.406;2023-05-07T14:15:13;9.50;;;8.70;;
16642;SDS011;8435;52.184;5.406;2023-05-07T14:17:41;10.65;;;9.75;;
16642;SDS011;8435;52.184;5.406;2023-05-07T14:20:09;10.27;;;9.38;;
16642;SDS011;8435;52.184;5.406;2023-05-07T14:22:39;11.35;;;10.35;;
16642;SDS011;8435;52.184;5.406;2023-05-07T14:25:06;11.38;;;10.48;;
16642;SDS011;8435;52.184;5.406;2023-05-07T14:27:34;10.60;;;9.70;;
16642;SDS011;8435;52.184;5.406;2023-05-07T14:30:01;8.93;;;8.15;;
16642;SDS011;8435;52.184;5.406;2023-05-07T14:32:28;10.43;;;9.52;;
16642;SDS011;8435;52.184;5.406;2023-05-07T14:34:54;9.70;;;8.95;;
16642;SDS011;8435;52.184;5.406;2023-05-07T14:37:25;10.77;;;9.95;;
16642;SDS011;8435;52.184;5.406;2023-05-07T14:39:52;11.50;;;10.60;;
16642;SDS011;8435;52.184;5.406;2023-05-07T14:42:18;12.00;;;11.00;;
16642;SDS011;8435;52.184;5.406;2023-05-07T14:44:45;11.20;;;10.20;;
16642;SDS011;8435;52.184;5.406;2023-05-07T14:47:13;13.40;;;11.38;;
16642;SDS011;8435;52.184;5.406;2023-05-07T14:49:40;12.25;;;11.20;;
16642;SDS011;8435;52.184;5.406;2023-05-07T14:52:08;11.32;;;10.35;;
16642;SDS011;8435;52.184;5.406;2023-05-07T14:54:36;10.00;;;9.15;;
16642;SDS011;8435;52.184;5.406;2023-05-07T14:57:08;11.13;;;10.07;;
16642;SDS011;8435;52.184;5.406;2023-05-07T14:59:35;10.95;;;10.05;;
16642;SDS011;8435;52.184;5.406;2023-05-07T15:02:03;11.30;;;10.25;;
16642;SDS011;8435;52.184;5.406;2023-05-07T15:04:31;10.85;;;9.95;;
16642;SDS011;8435;52.184;5.406;2023-05-07T15:06:58;11.65;;;10.52;;